Gullane, United Kingdom
Current Conditions -  °F | °C
As of 1:20 AM on Sunday 26 Oct 2014 (Local Time) from EGPH Reporting Station
Few Clouds Few Clouds  
Wind Chill: 52°   Ceiling: Unl
Heat Index: 52°   Visibility: 6mi
Dew Point: 45°   Wind: 29mph
Humidity: 76%   Direction: 230°SW
Pressure: 29.65"   Gusts: NA
Location:  56.04°N, 2.83°W
Report Text: EGPH 260020Z 23025KT 9999 FEW025 11/07 Q1004
Loading
Personal Weather Stations






























Interactive Weather Map
Tropical Storm Tracking
New forecast layout! Learn more

10-Day Weather Forecast

Advertisements
Track Severe Weather on mobile